Strona główna
METAR-TAF:

METAR-TAF

Lotnisko :

Port lotniczy Posadas

Posadas, Argentyna

Szerokość geograficzna: 27-22S, Długość geograficzna: 055-58W, wysokość: 131 m

Aktualna obserwacja pogody

Raport powstał 35 minut temu, godzina 22:00 UTC
Wiatr 3 kt od północny wschód
Temperatura 31°C
Wilgotność 59%
Ciśnienie 1006 hPa
Widzialność 10 km lub więcej
Brak chmur poniżej 1500 m i brak chmur cumulonimbus

METAR: SARP 222200Z 05003KT CAVOK 31/22 Q1006

czas: 19:35 (22:35 UTC)

Prognoza

Raport powstał 5 godziny i 35 minut temu, godzina 17:00 UTC
Prognoza ważna od 22 godzina 18 UTC do 23 godzina 18 UTC
Wiatr 15 kt od północ
Widzialność 10 km lub więcej
Rozproszone chmury na wysokości 3000 ft

TAF: SARP 221700Z 2218/2318 36015KT 9999 SCT030 TX37/2318Z TN22/2310Z

Obserwacja i prognoza pogody dla ponad 4000 lotnisk (raport METAR i TAF).

Dostępne stacje oznaczono żółtymi i czerwonymi punktami na mapie.

Najedź kursorem aby zobaczyć nazwę stacji.

Kliknij aby zobaczyć obserwacje i prognozy pogody.

Aby zmienić mapę: kliknij na zielony przycisk z czarnym krzyżykiem, aby powiększyć; na zielony przycisk z myślnikiem, aby pomniejszyć; na zielone strzałki, aby przejść do map sąsiednich.


METAR-TAF: